CDT,Max TemperatureF,Mean TemperatureF,Min TemperatureF,Max Dew PointF,MeanDew PointF,Min DewpointF,Max Humidity, Mean Humidity, Min Humidity, Max Sea Level PressureIn, Mean Sea Level PressureIn, Min Sea Level PressureIn, Max VisibilityMiles, Mean VisibilityMiles, Min VisibilityMiles, Max Wind SpeedMPH, Mean Wind SpeedMPH, Max Gust SpeedMPH,PrecipitationIn, CloudCover, Events, WindDirDegrees
2013-9-1,103,88,73,67,60,56,62,43,24,29.90,29.83,29.78,10,10,10,20,6,25,0.00,3,,47
2013-9-2,97,84,69,71,63,53,84,56,27,30.06,29.95,29.89,10,10,10,15,11,20,0.00,0,,43
2013-9-3,97,79,62,59,54,48,79,48,20,30.06,30.00,29.93,10,10,10,12,6,18,0.00,0,Rain,49
2013-9-4,99,81,63,63,55,41,78,45,14,30.09,30.03,29.97,10,10,7,13,5,18,0.00,0,,58
2013-9-5,100,86,72,66,61,55,71,49,24,30.10,30.06,30.01,10,10,10,12,8,17,0.00,0,,110
2013-9-6,101,86,71,63,60,58,66,43,24,30.06,30.00,29.92,10,10,10,13,7,,0.00,0,,126
2013-9-7,101,86,70,64,60,56,73,47,22,29.99,29.94,29.86,10,10,10,21,6,30,0.00,0,Thunderstorm,132
2013-9-8,99,84,69,66,59,54,77,43,24,29.96,29.91,29.83,10,10,10,20,7,26,0.00,0,,137
2013-9-9,95,82,68,64,60,58,77,48,29,29.98,29.91,29.85,10,10,10,20,9,25,0.00,0,,157
2013-9-10,93,82,70,66,63,60,82,53,34,30.11,30.01,29.92,10,10,10,24,11,28,0.00,1,,153
2013-9-11,94,80,68,68,62,57,88,59,29,30.14,30.07,29.98,10,10,10,17,7,22,0.00,3,,135
2013-9-12,98,82,67,63,59,56,78,49,26,30.09,30.02,29.94,10,10,10,13,5,,0.00,1,,104
2013-9-13,86,79,72,70,67,63,82,68,54,30.05,29.98,29.90,10,10,10,22,9,30,0.00,4,Thunderstorm,56
2013-9-14,89,80,71,68,65,63,84,66,44,30.01,29.94,29.87,10,10,9,13,8,20,0.00,4,Rain,90
2013-9-15,95,82,70,68,62,59,74,52,32,30.03,29.96,29.89,10,10,10,13,10,,0.00,3,Thunderstorm,134
2013-9-16,93,81,69,73,68,63,100,76,38,30.13,30.07,29.97,10,9,0,29,10,37,0.89,6,Fog-Rain-Thunderstorm,14
2013-9-17,87,78,69,75,71,66,100,86,51,30.14,30.03,29.95,10,10,4,22,9,24,0.04,5,Rain-Thunderstorm,148
2013-9-18,94,82,71,72,66,57,100,65,29,29.96,29.90,29.80,10,10,10,24,9,33,0.00,3,,170
2013-9-19,87,76,67,72,67,61,100,72,51,30.03,29.93,29.85,10,10,2,23,10,30,0.00,4,Rain,177
2013-9-20,71,64,58,70,62,53,100,84,56,30.05,29.99,29.87,10,10,7,20,12,26,0.01,5,Rain,25
2013-9-21,82,67,52,54,51,46,100,69,28,30.06,30.00,29.91,10,9,5,8,5,,0.00,0,,354
2013-9-22,85,68,53,53,49,45,89,56,26,29.94,29.86,29.77,10,10,10,14,6,17,0.00,0,,130
2013-9-23,87,70,53,54,51,49,97,54,29,29.83,29.76,29.68,10,10,10,22,11,30,0.00,0,,140
2013-9-24,90,74,57,54,48,41,77,44,18,30.00,29.92,29.84,10,10,7,15,8,22,0.00,0,,4
2013-9-25,94,74,54,58,51,47,84,51,22,29.91,29.82,29.69,10,9,4,18,7,23,0.00,0,,125
2013-9-26,95,79,64,60,58,53,83,50,25,29.80,29.74,29.69,10,10,10,25,14,36,0.00,0,,151
2013-9-27,92,78,64,70,64,54,76,58,41,29.89,29.80,29.71,10,10,10,25,14,33,0.00,2,,154
2013-9-28,78,68,59,74,67,51,100,90,53,30.04,29.87,29.76,10,7,1,34,15,43,1.10,5,Rain-Thunderstorm,360
2013-9-29,60,,60,50,50,50,68,68,68,29.97,29.97,29.97,10,6,2,8,5,,0.00,0,,326
2013-9-30,88,71,55,55,52,46,84,55,31,29.93,29.84,29.77,10,10,10,18,8,25,0.00,0,,135